Kezdőlap
METAR-TAF:

METAR-TAF

Repülőterek :

Kudat, Malajzia

földrajzi szélesség: 06-55N, földrajzi hosszúság: 116-50E, magasság: 3 m

Jelenlegi meteorológiai megfigyelések

A jelentés 1 órával és 8 perccel ezelõtt készült, 17:00 UTC
Délnyugati szél 5 kt, déli és nyugat-délnyugati között változik
Hőmérséklet 26°C
Páratartalom 94%
Légköri nyomás 1009 hPa

METAR: WBKT 281700Z AUTO 22005KT 190V250 //// // ////// 26/25 Q1009

Idő: 02:08 (18:08 UTC)


TAF: hiányzik

Meteorológiai megfigyelések és előrejelzések több, mint 4000 repülőtéren (METAR és TAF jelentéseket).

A térképen piros és sárga pontok jelzik az elérhető meteorológiai állomásokat.

Mozgassa az egeret a pont fölött, hogy megjelenjen az állomás neve.

Azután kattintson az időjárási megfigyelések és előrejelzések megtekintéséhez.

A térkép megváltoztatása: kattintson a fekete keresztel jelölt zöld gombra ráközelítéshez, a vonallal jelölt zöld gombra távolításhoz, vagy a zöld nyilakra a szomszédos térképek eléréséhez.


METAR-TAF: